Time;durP1;ratioP1;P1;durP2;ratioP2;P2;SDS_P1;SDS_P2;PMS_P1;PMS_P2;Temp;Humidity;BMP_temperature;BMP_pressure;BME280_temperature;BME280_humidity;BME280_pressure;Samples;Min_cycle;Max_cycle;Signal;HPM_P1;HPM_P2
2022/05/06 00:00:16;;;;;;;13.73;12.23;;;16.00;99.90;;;;;;1039192;28;20311;-64
2022/05/06 00:00:47;;;;;;;14.07;11.18;;;16.00;99.90;;;;;;1039296;28;20116;-64
2022/05/06 00:01:18;;;;;;;15.97;13.33;;;16.00;99.90;;;;;;1038917;28;20028;-66
2022/05/06 00:01:50;;;;;;;14.90;11.53;;;16.00;99.90;;;;;;1043387;28;20259;-64
2022/05/06 00:02:21;;;;;;;13.10;11.70;;;16.00;99.90;;;;;;1043108;28;20013;-65
2022/05/06 00:02:52;;;;;;;14.27;12.40;;;16.00;99.90;;;;;;1043350;28;20072;-65
2022/05/06 00:03:22;;;;;;;13.37;11.97;;;16.00;99.90;;;;;;1042869;28;20009;-64
2022/05/06 00:03:53;;;;;;;12.47;11.17;;;16.00;99.90;;;;;;1039579;28;20020;-65
2022/05/06 00:04:24;;;;;;;13.18;11.80;;;16.00;99.90;;;;;;1040735;28;20024;-64
2022/05/06 00:04:55;;;;;;;14.07;12.50;;;16.00;99.90;;;;;;1043135;28;20020;-65
2022/05/06 00:05:25;;;;;;;12.07;10.83;;;16.00;99.90;;;;;;1039338;28;20006;-67
2022/05/06 00:05:56;;;;;;;13.60;12.23;;;16.00;99.90;;;;;;1039681;28;20075;-66
2022/05/06 00:06:28;;;;;;;12.30;11.07;;;16.00;99.90;;;;;;1038858;28;20017;-66
2022/05/06 00:06:59;;;;;;;14.07;12.63;;;16.00;99.90;;;;;;1040411;28;20076;-66
2022/05/06 00:07:30;;;;;;;12.93;11.63;;;16.00;99.90;;;;;;1043041;28;20035;-66
2022/05/06 00:08:00;;;;;;;12.33;11.03;;;16.00;99.90;;;;;;1043150;28;20247;-66
2022/05/06 00:08:31;;;;;;;14.53;12.47;;;16.00;99.90;;;;;;1043364;28;20436;-64
2022/05/06 00:09:03;;;;;;;14.17;12.67;;;16.00;99.90;;;;;;1043598;28;20372;-66
2022/05/06 00:09:34;;;;;;;14.10;12.43;;;16.00;99.90;;;;;;1043352;28;20017;-66
2022/05/06 00:10:06;;;;;;;13.40;11.80;;;16.00;99.90;;;;;;1043610;28;20009;-66
2022/05/06 00:10:37;;;;;;;13.43;12.02;;;16.00;99.90;;;;;;1043095;28;20005;-66
2022/05/06 00:11:07;;;;;;;14.10;12.13;;;16.00;99.90;;;;;;1043726;28;20005;-68
2022/05/06 00:11:38;;;;;;;13.30;11.80;;;16.00;99.90;;;;;;1042965;28;20020;-65
2022/05/06 00:12:10;;;;;;;15.67;12.77;;;16.00;99.90;;;;;;1043857;28;20012;-67
2022/05/06 00:12:42;;;;;;;13.30;11.52;;;16.00;99.90;;;;;;1043359;28;20001;-65
2022/05/06 00:13:13;;;;;;;13.35;11.95;;;15.90;99.90;;;;;;1043773;28;20015;-64
2022/05/06 00:13:43;;;;;;;15.37;13.70;;;16.00;99.90;;;;;;1042865;28;20012;-66
2022/05/06 00:14:14;;;;;;;14.17;12.27;;;16.00;99.90;;;;;;1043604;28;20392;-66
2022/05/06 00:14:47;;;;;;;14.43;12.83;;;16.00;99.90;;;;;;1038733;28;20464;-66
2022/05/06 00:15:18;;;;;;;12.50;11.20;;;16.00;99.90;;;;;;1039859;28;20016;-66
2022/05/06 00:15:48;;;;;;;13.33;11.50;;;16.00;99.90;;;;;;1043264;28;20032;-64
2022/05/06 00:16:20;;;;;;;14.97;11.63;;;15.90;99.90;;;;;;1039508;28;20447;-65
2022/05/06 00:16:50;;;;;;;13.82;11.80;;;16.00;99.90;;;;;;1038834;28;20009;-64
2022/05/06 00:17:21;;;;;;;11.20;10.00;;;16.00;99.90;;;;;;1039429;28;20025;-65
2022/05/06 00:17:51;;;;;;;12.37;11.07;;;16.00;99.90;;;;;;1039109;28;20022;-66
2022/05/06 00:18:22;;;;;;;15.27;12.20;;;16.00;99.90;;;;;;1043451;28;20009;-66
2022/05/06 00:18:53;;;;;;;13.50;11.90;;;16.00;99.90;;;;;;1043045;28;20024;-67
2022/05/06 00:19:24;;;;;;;13.25;11.77;;;16.00;99.90;;;;;;1043114;28;20039;-66
2022/05/06 00:19:55;;;;;;;13.40;12.00;;;16.00;99.90;;;;;;1043136;28;20009;-66
2022/05/06 00:20:26;;;;;;;12.10;10.90;;;16.00;99.90;;;;;;1043455;28;20012;-65
2022/05/06 00:20:56;;;;;;;12.20;10.90;;;16.00;99.90;;;;;;1043104;28;20041;-65
2022/05/06 00:21:26;;;;;;;14.07;12.27;;;15.90;99.90;;;;;;1043801;28;20798;-65
2022/05/06 00:21:57;;;;;;;12.03;10.70;;;16.00;99.90;;;;;;1043285;28;20013;-65
2022/05/06 00:22:27;;;;;;;14.17;12.47;;;16.00;99.90;;;;;;1043718;28;20055;-64
2022/05/06 00:22:59;;;;;;;12.47;11.17;;;15.90;99.90;;;;;;1043437;28;20013;-66
2022/05/06 00:23:29;;;;;;;13.98;12.02;;;15.90;99.90;;;;;;1043776;28;20062;-64
2022/05/06 00:24:00;;;;;;;13.07;11.57;;;15.90;99.90;;;;;;1043557;28;20074;-66
2022/05/06 00:24:31;;;;;;;12.37;11.17;;;15.90;99.90;;;;;;1043369;28;20016;-68
2022/05/06 00:25:01;;;;;;;13.77;12.10;;;15.90;99.90;;;;;;1043370;28;20039;-65
2022/05/06 00:25:32;;;;;;;12.70;11.30;;;15.90;99.90;;;;;;1043262;28;20006;-65
2022/05/06 00:26:03;;;;;;;14.30;12.00;;;15.90;99.90;;;;;;1043257;28;20252;-64
2022/05/06 00:26:33;;;;;;;14.20;12.52;;;15.90;99.90;;;;;;1043012;28;20471;-64
2022/05/06 00:27:04;;;;;;;14.67;11.97;;;15.90;99.90;;;;;;1043426;28;20468;-67
2022/05/06 00:27:39;;;;;;;12.80;11.43;;;15.90;99.90;;;;;;1038925;28;20964;-65
2022/05/06 00:28:09;;;;;;;13.68;11.95;;;15.90;99.90;;;;;;1039931;28;20006;-66
2022/05/06 00:28:40;;;;;;;12.47;11.10;;;15.90;99.90;;;;;;1038796;28;20013;-65
2022/05/06 00:29:10;;;;;;;13.93;11.33;;;15.90;99.90;;;;;;1040189;28;20441;-67
2022/05/06 00:29:42;;;;;;;11.83;10.63;;;15.90;99.90;;;;;;1042837;28;20566;-66
2022/05/06 00:30:12;;;;;;;13.05;11.30;;;15.90;99.90;;;;;;1043414;28;20005;-66
2022/05/06 00:30:43;;;;;;;16.27;13.63;;;15.90;99.90;;;;;;1043100;28;20016;-65
2022/05/06 00:31:14;;;;;;;11.57;10.37;;;15.90;99.90;;;;;;1043263;28;20025;-65
2022/05/06 00:31:44;;;;;;;11.57;10.37;;;15.90;99.90;;;;;;1043326;28;20537;-65
2022/05/06 00:32:15;;;;;;;11.83;10.13;;;15.90;99.90;;;;;;1043785;28;20485;-66
2022/05/06 00:32:45;;;;;;;13.70;11.83;;;15.90;99.90;;;;;;1043359;28;20062;-65
2022/05/06 00:33:16;;;;;;;12.30;10.77;;;15.90;99.90;;;;;;1043628;28;20009;-65
2022/05/06 00:33:48;;;;;;;13.07;11.23;;;15.90;99.90;;;;;;1043476;28;20472;-65
2022/05/06 00:34:18;;;;;;;13.90;12.50;;;15.90;99.90;;;;;;1043097;28;20658;-65
2022/05/06 00:34:49;;;;;;;12.27;10.97;;;15.90;99.90;;;;;;1043158;28;20656;-66
2022/05/06 00:35:19;;;;;;;14.13;12.50;;;15.90;99.90;;;;;;1043434;28;20005;-64
2022/05/06 00:35:58;;;;;;;12.50;11.20;;;15.90;99.90;;;;;;1042986;28;20025;-64
2022/05/06 00:36:28;;;;;;;;;;;15.80;99.90;;;;;;1044096;28;20091;-64
2022/05/06 00:36:59;;;;;;;13.07;11.53;;;15.80;99.90;;;;;;1043401;28;19909;-65
2022/05/06 00:37:31;;;;;;;11.95;10.73;;;15.80;99.90;;;;;;1043602;28;20005;-65
2022/05/06 00:38:02;;;;;;;13.55;11.73;;;15.80;99.90;;;;;;1043420;28;20036;-65
2022/05/06 00:38:32;;;;;;;13.07;11.77;;;15.80;99.90;;;;;;1043528;28;20013;-66
2022/05/06 00:39:03;;;;;;;13.07;10.83;;;15.80;99.90;;;;;;1043167;28;20222;-66
2022/05/06 00:39:34;;;;;;;13.15;11.20;;;15.80;99.90;;;;;;1043714;28;20483;-67
2022/05/06 00:40:05;;;;;;;13.83;11.40;;;15.80;99.90;;;;;;1043351;28;20019;-66
2022/05/06 00:40:35;;;;;;;12.05;10.85;;;15.80;99.90;;;;;;1043546;28;20013;-67
2022/05/06 00:41:06;;;;;;;12.60;11.03;;;15.80;99.90;;;;;;1043503;28;20070;-67
2022/05/06 00:41:36;;;;;;;12.53;11.13;;;15.80;99.90;;;;;;1043506;28;20006;-66
2022/05/06 00:42:08;;;;;;;13.63;11.70;;;15.80;99.90;;;;;;1043483;28;20012;-66
2022/05/06 00:42:38;;;;;;;12.77;11.48;;;15.80;99.90;;;;;;1043464;28;20005;-66
2022/05/06 00:43:09;;;;;;;13.30;11.67;;;15.80;99.90;;;;;;1042822;28;20009;-66
2022/05/06 00:43:40;;;;;;;13.20;11.63;;;15.80;99.90;;;;;;1043181;28;20043;-64
2022/05/06 00:44:11;;;;;;;13.88;11.32;;;15.80;99.90;;;;;;1038952;28;20010;-66
2022/05/06 00:44:41;;;;;;;14.17;12.37;;;15.80;99.90;;;;;;1039021;28;20028;-65
2022/05/06 00:45:12;;;;;;;14.03;12.00;;;15.80;99.90;;;;;;1039331;28;20424;-64
2022/05/06 00:45:54;;;;;;;12.53;11.23;;;15.70;99.90;;;;;;1043237;28;20028;-66
2022/05/06 00:46:24;;;;;;;13.25;11.63;;;15.70;99.90;;;;;;1043349;28;20104;-67
2022/05/06 00:46:58;;;;;;;12.63;11.00;;;15.70;99.90;;;;;;1043596;28;20150;-67
2022/05/06 00:47:29;;;;;;;14.20;11.98;;;15.70;99.90;;;;;;1043467;28;20502;-67
2022/05/06 00:47:59;;;;;;;13.60;12.13;;;15.70;99.90;;;;;;1043078;28;20614;-64
2022/05/06 00:48:32;;;;;;;13.73;11.73;;;15.70;99.90;;;;;;1043200;28;20552;-65
2022/05/06 00:49:03;;;;;;;13.93;12.10;;;15.70;99.90;;;;;;1043355;28;20017;-67
2022/05/06 00:49:35;;;;;;;14.32;12.82;;;15.70;99.90;;;;;;1042968;28;20124;-64
2022/05/06 00:50:06;;;;;;;14.65;11.90;;;15.70;99.90;;;;;;1042185;28;20512;-65
2022/05/06 00:50:38;;;;;;;13.95;12.25;;;15.70;99.90;;;;;;1038590;28;20460;-65
2022/05/06 00:51:09;;;;;;;13.48;11.70;;;15.70;99.90;;;;;;1039385;28;20077;-64
2022/05/06 00:51:40;;;;;;;15.48;13.13;;;15.70;99.90;;;;;;1038822;28;20068;-66
2022/05/06 00:52:11;;;;;;;13.77;12.35;;;15.70;99.90;;;;;;1039228;28;20022;-67
2022/05/06 00:52:42;;;;;;;13.70;12.00;;;15.70;99.90;;;;;;1039212;28;20101;-65
2022/05/06 00:53:13;;;;;;;13.00;11.52;;;15.70;99.90;;;;;;1039206;28;20032;-65
2022/05/06 00:53:44;;;;;;;14.02;11.95;;;15.70;99.90;;;;;;1038644;28;20638;-65
2022/05/06 00:54:15;;;;;;;12.50;11.20;;;15.70;99.90;;;;;;1039337;28;20398;-65
2022/05/06 00:54:46;;;;;;;13.87;12.37;;;15.70;99.90;;;;;;1039223;28;20376;-66
2022/05/06 00:55:17;;;;;;;13.80;12.27;;;15.70;99.90;;;;;;1043009;28;20082;-66
2022/05/06 00:55:49;;;;;;;14.13;12.23;;;15.70;99.90;;;;;;1039203;28;20423;-66
2022/05/06 00:56:20;;;;;;;14.63;12.00;;;15.70;99.90;;;;;;1039410;28;20424;-65
2022/05/06 00:56:52;;;;;;;14.10;12.30;;;15.70;99.90;;;;;;1039273;28;20556;-65
2022/05/06 00:57:23;;;;;;;12.77;11.48;;;15.70;99.90;;;;;;1043198;28;20464;-66
2022/05/06 00:57:54;;;;;;;15.73;11.73;;;15.70;99.90;;;;;;1043030;28;20543;-65
2022/05/06 00:58:29;;;;;;;13.43;11.70;;;15.70;99.90;;;;;;1038910;28;20521;-71
2022/05/06 00:58:59;;;;;;;15.45;12.10;;;15.70;99.90;;;;;;1038037;28;20026;-65
2022/05/06 00:59:30;;;;;;;13.30;11.17;;;15.70;99.90;;;;;;1035233;28;20023;-65
2022/05/06 01:00:20;;;;;;;13.03;11.63;;;15.70;99.90;;;;;;1035392;28;20018;-65
2022/05/06 01:00:50;;;;;;;13.60;11.40;;;15.70;99.90;;;;;;1039203;28;20022;-66
2022/05/06 01:01:21;;;;;;;12.90;11.27;;;15.70;99.90;;;;;;1040512;28;20083;-65
2022/05/06 01:01:52;;;;;;;13.63;12.20;;;15.60;99.90;;;;;;1043432;28;20052;-66
2022/05/06 01:02:23;;;;;;;11.93;10.67;;;15.70;99.90;;;;;;1043533;28;20013;-66
2022/05/06 01:02:53;;;;;;;13.77;12.13;;;15.60;99.90;;;;;;1042920;28;20526;-67
2022/05/06 01:03:24;;;;;;;12.93;11.60;;;15.70;99.90;;;;;;1043044;28;20481;-66
2022/05/06 01:03:55;;;;;;;13.23;11.63;;;15.60;99.90;;;;;;1043331;28;20583;-66
2022/05/06 01:04:26;;;;;;;13.63;11.88;;;15.60;99.90;;;;;;1043085;28;20023;-66
2022/05/06 01:04:56;;;;;;;13.63;12.27;;;15.60;99.90;;;;;;1043441;28;20032;-66
2022/05/06 01:05:27;;;;;;;14.90;12.03;;;15.60;99.90;;;;;;1043463;28;20028;-67
2022/05/06 01:05:58;;;;;;;13.80;12.20;;;15.60;99.90;;;;;;1043469;28;20025;-66
2022/05/06 01:06:28;;;;;;;14.80;11.38;;;15.60;99.90;;;;;;1043040;28;20151;-66
2022/05/06 01:06:59;;;;;;;14.03;11.70;;;15.60;99.90;;;;;;1043344;28;20017;-66
2022/05/06 01:07:29;;;;;;;14.93;13.33;;;15.60;99.90;;;;;;1042981;28;20009;-66
2022/05/06 01:08:02;;;;;;;14.30;11.70;;;15.60;99.90;;;;;;1039242;28;20702;-66
2022/05/06 01:08:34;;;;;;;13.15;11.75;;;15.60;99.90;;;;;;1042948;28;20528;-66
2022/05/06 01:09:05;;;;;;;16.35;13.80;;;15.60;99.90;;;;;;1043173;28;20020;-66
2022/05/06 01:09:35;;;;;;;14.20;11.90;;;15.60;99.90;;;;;;1042965;28;20106;-68
2022/05/06 01:10:07;;;;;;;13.00;11.67;;;15.60;99.90;;;;;;1043564;28;20028;-66
2022/05/06 01:10:38;;;;;;;14.27;12.80;;;15.60;99.90;;;;;;1042837;28;20025;-66
2022/05/06 01:11:11;;;;;;;13.38;11.93;;;15.60;99.90;;;;;;1043355;28;20059;-66
2022/05/06 01:11:42;;;;;;;13.57;12.02;;;15.60;99.90;;;;;;1042487;28;20013;-66
2022/05/06 01:12:13;;;;;;;14.75;12.93;;;15.60;99.90;;;;;;1043351;28;20088;-66
2022/05/06 01:12:44;;;;;;;14.50;12.97;;;15.60;99.90;;;;;;1043039;28;20014;-66
2022/05/06 01:13:15;;;;;;;13.65;11.80;;;15.60;99.90;;;;;;1043477;28;20480;-67
2022/05/06 01:13:47;;;;;;;14.63;12.60;;;15.60;99.90;;;;;;1042851;28;20516;-66
2022/05/06 01:14:38;;;;;;;15.63;12.73;;;15.60;99.90;;;;;;1043101;28;20016;-66
2022/05/06 01:15:19;;;;;;;13.55;11.75;;;15.60;99.90;;;;;;1043243;28;20128;-65
2022/05/06 01:15:53;;;;;;;13.57;11.77;;;15.60;99.90;;;;;;1039237;28;20021;-65
2022/05/06 01:16:24;;;;;;;13.70;12.20;;;15.60;99.90;;;;;;1039316;28;20026;-66
2022/05/06 01:16:55;;;;;;;15.52;13.48;;;15.60;99.90;;;;;;1039230;28;20274;-68
2022/05/06 01:17:26;;;;;;;14.93;12.67;;;15.60;99.90;;;;;;1039573;28;20041;-66
2022/05/06 01:17:57;;;;;;;13.40;12.00;;;15.50;99.90;;;;;;1039221;28;20357;-66
2022/05/06 01:18:28;;;;;;;13.40;12.00;;;15.50;99.90;;;;;;1039377;28;20101;-66
2022/05/06 01:18:58;;;;;;;15.67;12.83;;;15.60;99.90;;;;;;1039368;28;20029;-66
2022/05/06 01:19:29;;;;;;;15.87;13.20;;;15.60;99.90;;;;;;1039066;28;20077;-66
2022/05/06 01:19:59;;;;;;;13.13;11.70;;;15.60;99.90;;;;;;1034733;28;20029;-67
2022/05/06 01:20:35;;;;;;;13.53;12.10;;;15.60;99.90;;;;;;1035188;28;20029;-65
2022/05/06 01:21:07;;;;;;;12.23;10.98;;;15.60;99.90;;;;;;1035501;28;20492;-67
2022/05/06 01:21:42;;;;;;;14.18;12.20;;;15.50;99.90;;;;;;1039051;28;20017;-66
2022/05/06 01:22:13;;;;;;;15.10;12.15;;;15.50;99.90;;;;;;1040648;28;20021;-66
2022/05/06 01:22:48;;;;;;;14.50;12.77;;;15.50;99.90;;;;;;1038914;28;20021;-66
2022/05/06 01:23:23;;;;;;;14.25;12.73;;;15.50;99.90;;;;;;1039029;28;20053;-65
2022/05/06 01:23:54;;;;;;;14.98;13.02;;;15.50;99.90;;;;;;1039779;28;20057;-66
2022/05/06 01:24:25;;;;;;;14.93;12.10;;;15.50;99.90;;;;;;1039875;28;20211;-66
2022/05/06 01:24:55;;;;;;;14.20;12.45;;;15.50;99.90;;;;;;1040037;28;20174;-68
2022/05/06 01:25:27;;;;;;;14.77;12.27;;;15.50;99.90;;;;;;1039509;28;20017;-66
2022/05/06 01:25:58;;;;;;;17.17;13.75;;;15.50;99.90;;;;;;1039921;28;20063;-67
2022/05/06 01:27:01;;;;;;;15.43;13.38;;;15.50;99.90;;;;;;1039737;28;20057;-66
2022/05/06 01:27:36;;;;;;;16.35;14.05;;;15.50;99.90;;;;;;1040007;28;20093;-66
2022/05/06 01:28:07;;;;;;;14.88;12.57;;;15.50;99.90;;;;;;1039993;28;20016;-68
2022/05/06 01:28:41;;;;;;;19.17;14.50;;;15.50;99.90;;;;;;1040079;28;20020;-66
2022/05/06 01:29:12;;;;;;;18.05;14.05;;;15.50;99.90;;;;;;1040162;28;20476;-67
2022/05/06 01:29:45;;;;;;;17.73;13.70;;;15.50;99.90;;;;;;1043069;28;20032;-68
2022/05/06 01:30:39;;;;;;;14.50;11.85;;;15.50;99.90;;;;;;1044144;28;20025;-67
2022/05/06 01:31:12;;;;;;;12.30;10.80;;;15.50;99.90;;;;;;1043878;28;20032;-66
2022/05/06 01:31:43;;;;;;;17.85;14.15;;;15.50;99.90;;;;;;1043610;28;20020;-66
2022/05/06 01:32:17;;;;;;;18.23;14.20;;;15.50;99.90;;;;;;1044040;28;20020;-67
2022/05/06 01:32:49;;;;;;;14.38;12.18;;;15.50;99.90;;;;;;1043785;28;20024;-66
2022/05/06 01:33:22;;;;;;;14.00;11.82;;;15.60;99.90;;;;;;1044298;28;20013;-67
2022/05/06 01:33:55;;;;;;;13.27;11.88;;;15.60;99.90;;;;;;1044176;28;20074;-67
2022/05/06 01:34:28;;;;;;;15.45;12.65;;;15.60;99.90;;;;;;1044194;28;20013;-67
2022/05/06 01:35:00;;;;;;;19.83;14.85;;;15.60;99.90;;;;;;1043977;28;20017;-69
2022/05/06 01:35:38;;;;;;;13.70;11.40;;;15.60;99.90;;;;;;1040034;28;20013;-67
2022/05/06 01:36:10;;;;;;;16.58;14.07;;;15.60;99.90;;;;;;1040382;28;20417;-66
2022/05/06 01:36:41;;;;;;;16.13;14.18;;;15.60;99.90;;;;;;1039685;28;20625;-67
2022/05/06 01:37:15;;;;;;;11.82;10.52;;;15.60;99.90;;;;;;1040276;28;20010;-69
2022/05/06 01:37:49;;;;;;;15.85;12.90;;;15.60;99.90;;;;;;1039318;28;20030;-67
2022/05/06 01:38:31;;;;;;;13.63;12.23;;;15.60;99.90;;;;;;1039919;28;20121;-66
2022/05/06 01:39:01;;;;;;;15.80;12.32;;;15.60;99.90;;;;;;1039646;28;20045;-66
2022/05/06 01:39:37;;;;;;;12.40;10.90;;;15.60;99.90;;;;;;1039889;28;20020;-66
2022/05/06 01:40:09;;;;;;;14.00;11.30;;;15.60;99.90;;;;;;1039595;28;20018;-66
2022/05/06 01:40:46;;;;;;;14.18;12.68;;;15.60;99.90;;;;;;1039524;28;20088;-66
2022/05/06 01:41:26;;;;;;;15.63;14.00;;;15.60;99.90;;;;;;1039940;28;20014;-66
2022/05/06 01:42:00;;;;;;;14.82;13.18;;;15.60;99.90;;;;;;1041844;28;20064;-66
2022/05/06 01:42:34;;;;;;;13.68;11.73;;;15.60;99.90;;;;;;1041346;28;20017;-67
2022/05/06 01:43:07;;;;;;;13.60;12.27;;;15.60;99.90;;;;;;1039500;28;20021;-69
2022/05/06 01:43:42;;;;;;;16.02;13.68;;;15.60;99.90;;;;;;1041653;28;20238;-67
2022/05/06 01:44:16;;;;;;;13.93;12.45;;;15.60;99.90;;;;;;1040667;28;20087;-67
2022/05/06 01:44:50;;;;;;;12.55;10.40;;;15.60;99.90;;;;;;1035414;28;20022;-66
2022/05/06 01:45:22;;;;;;;14.13;12.13;;;15.60;99.90;;;;;;1035399;28;20018;-66
2022/05/06 01:45:55;;;;;;;13.27;11.88;;;15.60;99.90;;;;;;1036967;28;20045;-66
2022/05/06 01:46:28;;;;;;;12.43;11.13;;;15.60;99.90;;;;;;1039496;28;20044;-65
2022/05/06 01:47:02;;;;;;;12.90;11.43;;;15.60;99.90;;;;;;1036582;28;20010;-66
2022/05/06 01:47:35;;;;;;;13.95;12.45;;;15.60;99.90;;;;;;1039563;28;20346;-66
2022/05/06 01:48:06;;;;;;;11.48;10.27;;;15.60;99.90;;;;;;1039834;28;20014;-70
2022/05/06 01:48:37;;;;;;;12.02;10.30;;;15.60;99.90;;;;;;1039634;28;20519;-66
2022/05/06 01:49:10;;;;;;;16.05;11.88;;;15.60;99.90;;;;;;1039667;28;20465;-66
2022/05/06 01:49:42;;;;;;;12.45;11.02;;;15.60;99.90;;;;;;1039826;28;20013;-67
2022/05/06 01:50:13;;;;;;;12.02;10.73;;;15.60;99.90;;;;;;1041396;28;20013;-66
2022/05/06 01:50:45;;;;;;;11.10;10.00;;;15.60;99.90;;;;;;1043261;28;20012;-66
2022/05/06 01:51:17;;;;;;;12.98;10.90;;;15.60;99.90;;;;;;1039958;28;20255;-67
2022/05/06 01:51:48;;;;;;;13.00;11.60;;;15.60;99.90;;;;;;1039982;28;20009;-66
2022/05/06 01:52:20;;;;;;;14.82;13.32;;;15.60;99.90;;;;;;1040139;28;20052;-68
2022/05/06 01:52:51;;;;;;;12.43;10.63;;;15.60;99.90;;;;;;1040145;28;20010;-65
2022/05/06 01:53:21;;;;;;;13.13;11.82;;;15.60;99.90;;;;;;1039896;28;20009;-66
2022/05/06 01:53:52;;;;;;;13.23;11.90;;;15.60;99.90;;;;;;1039927;28;20376;-66
2022/05/06 01:54:22;;;;;;;13.07;11.77;;;15.60;99.90;;;;;;1039969;28;20167;-68
2022/05/06 01:54:53;;;;;;;12.57;10.80;;;15.60;99.90;;;;;;1039762;28;20178;-66
2022/05/06 01:55:24;;;;;;;12.73;10.90;;;15.60;99.90;;;;;;1039703;28;20024;-67
2022/05/06 01:55:54;;;;;;;11.53;10.13;;;15.60;99.90;;;;;;1035406;28;20113;-66
2022/05/06 01:56:25;;;;;;;12.10;10.80;;;15.60;99.90;;;;;;1035686;28;20023;-67
2022/05/06 01:56:55;;;;;;;11.40;10.23;;;15.60;99.90;;;;;;1039532;28;20087;-66
2022/05/06 01:57:26;;;;;;;11.47;10.27;;;15.60;99.90;;;;;;1039915;28;20627;-66
2022/05/06 01:57:56;;;;;;;11.67;10.43;;;15.60;99.90;;;;;;1043316;28;20330;-66
2022/05/06 01:58:27;;;;;;;12.63;11.33;;;15.60;99.90;;;;;;1043890;28;20596;-67
2022/05/06 01:58:57;;;;;;;13.33;11.93;;;15.60;99.90;;;;;;1039475;28;20171;-66
2022/05/06 01:59:28;;;;;;;12.67;11.37;;;15.60;99.90;;;;;;1038948;28;20079;-65
2022/05/06 01:59:58;;;;;;;12.57;10.87;;;15.50;99.90;;;;;;1039525;28;20006;-65
2022/05/06 02:00:29;;;;;;;13.00;11.60;;;15.50;99.90;;;;;;1039857;28;20041;-66
2022/05/06 02:01:00;;;;;;;12.37;10.97;;;15.60;99.90;;;;;;1039757;28;20152;-66
2022/05/06 02:01:33;;;;;;;12.73;11.53;;;15.60;99.90;;;;;;1039989;28;20009;-66
2022/05/06 02:02:04;;;;;;;13.20;11.57;;;15.60;99.90;;;;;;1039473;28;20104;-66
2022/05/06 02:02:34;;;;;;;11.97;10.67;;;15.50;99.90;;;;;;1039702;28;20016;-67
2022/05/06 02:03:05;;;;;;;13.30;11.73;;;15.50;99.90;;;;;;1039487;28;20117;-66
2022/05/06 02:05:16;;;;;;;14.35;12.18;;;15.50;99.90;;;;;;1039865;28;20144;-65
2022/05/06 02:05:47;;;;;;;11.68;10.48;;;15.50;99.90;;;;;;1039866;28;20603;-67
2022/05/06 02:06:18;;;;;;;11.23;10.00;;;15.50;99.90;;;;;;1039933;28;20524;-67
2022/05/06 02:06:48;;;;;;;10.63;9.53;;;15.50;99.90;;;;;;1039982;28;20021;-67
2022/05/06 02:07:19;;;;;;;13.43;11.87;;;15.50;99.90;;;;;;1039326;28;20005;-67
2022/05/06 02:07:52;;;;;;;10.00;9.00;;;15.50;99.90;;;;;;1039830;28;20021;-67
2022/05/06 02:08:23;;;;;;;11.07;9.98;;;15.50;99.90;;;;;;1039264;28;20018;-67
2022/05/06 02:08:54;;;;;;;10.90;9.77;;;15.50;99.90;;;;;;1039756;28;20037;-67
2022/05/06 02:09:24;;;;;;;12.30;11.00;;;15.50;99.90;;;;;;1039458;28;20025;-67
2022/05/06 02:09:55;;;;;;;10.03;9.03;;;15.50;99.90;;;;;;1039690;28;20665;-67
2022/05/06 02:10:25;;;;;;;11.53;10.33;;;15.50;99.90;;;;;;1040058;28;20606;-66
2022/05/06 02:10:56;;;;;;;10.53;9.53;;;15.50;99.90;;;;;;1039997;28;20037;-67
2022/05/06 02:11:26;;;;;;;11.97;10.63;;;15.50;99.90;;;;;;1039890;28;20026;-67
2022/05/06 02:11:57;;;;;;;11.93;10.73;;;15.50;99.90;;;;;;1043462;28;20389;-65
2022/05/06 02:12:27;;;;;;;11.30;10.20;;;15.50;99.90;;;;;;1043921;28;20013;-65
2022/05/06 02:12:59;;;;;;;12.70;10.40;;;15.50;99.90;;;;;;1044390;28;20044;-65
2022/05/06 02:13:30;;;;;;;11.38;10.23;;;15.50;99.90;;;;;;1043399;28;20082;-65
2022/05/06 02:14:01;;;;;;;13.00;10.45;;;15.50;99.90;;;;;;1043664;28;20021;-65
2022/05/06 02:14:31;;;;;;;11.30;10.10;;;15.50;99.90;;;;;;1039384;28;20084;-65
2022/05/06 02:15:03;;;;;;;10.93;9.67;;;15.50;99.90;;;;;;1035640;28;20035;-68
2022/05/06 02:15:34;;;;;;;11.75;10.52;;;15.50;99.90;;;;;;1035202;28;20021;-67
2022/05/06 02:16:05;;;;;;;10.98;9.88;;;15.50;99.90;;;;;;1031787;28;20089;-67
2022/05/06 02:16:36;;;;;;;10.68;9.57;;;15.50;99.90;;;;;;1035484;28;20101;-66
2022/05/06 02:17:06;;;;;;;11.07;9.40;;;15.50;99.90;;;;;;1039941;28;20029;-65
2022/05/06 02:17:39;;;;;;;9.03;8.23;;;15.40;99.90;;;;;;1043362;28;20028;-68
2022/05/06 02:18:09;;;;;;;11.70;10.50;;;15.50;99.90;;;;;;1043870;28;20049;-65
2022/05/06 02:18:40;;;;;;;10.47;9.43;;;15.50;99.90;;;;;;1043371;28;20574;-66
2022/05/06 02:19:11;;;;;;;11.70;10.50;;;15.40;99.90;;;;;;1043897;28;20017;-65
2022/05/06 02:19:42;;;;;;;10.10;8.60;;;15.50;99.90;;;;;;1043368;28;20053;-67
2022/05/06 02:20:13;;;;;;;11.50;9.23;;;15.50;99.90;;;;;;1044313;28;20379;-65
2022/05/06 02:20:44;;;;;;;10.93;9.80;;;15.50;99.90;;;;;;1039234;28;20536;-67
2022/05/06 02:21:14;;;;;;;11.20;10.07;;;15.50;99.90;;;;;;1039894;28;20093;-66
2022/05/06 02:21:45;;;;;;;11.17;10.07;;;15.50;99.90;;;;;;1039487;28;20499;-68
2022/05/06 02:22:15;;;;;;;9.77;8.80;;;15.50;99.90;;;;;;1039653;28;20437;-68
2022/05/06 02:22:46;;;;;;;9.80;8.87;;;15.50;99.90;;;;;;1044022;28;20583;-68
2022/05/06 02:23:16;;;;;;;11.10;10.00;;;15.50;99.90;;;;;;1043750;28;20388;-66
2022/05/06 02:23:47;;;;;;;10.20;9.20;;;15.50;99.90;;;;;;1043654;28;20019;-67
2022/05/06 02:24:17;;;;;;;11.03;9.93;;;15.50;99.90;;;;;;1043686;28;20013;-66
2022/05/06 02:24:48;;;;;;;10.87;9.77;;;15.50;99.90;;;;;;1043776;28;20022;-66
2022/05/06 02:25:18;;;;;;;9.93;9.03;;;15.40;99.90;;;;;;1043808;28;20440;-66
2022/05/06 02:25:50;;;;;;;10.83;9.73;;;15.40;99.90;;;;;;1044272;28;20032;-65
2022/05/06 02:26:20;;;;;;;11.00;9.90;;;15.40;99.90;;;;;;1043749;28;20013;-66
2022/05/06 02:26:51;;;;;;;10.47;9.37;;;15.40;99.90;;;;;;1044111;28;20024;-65
2022/05/06 02:27:22;;;;;;;9.63;8.73;;;15.40;99.90;;;;;;1043911;28;20089;-65
2022/05/06 02:27:52;;;;;;;10.07;9.07;;;15.40;99.90;;;;;;1043975;28;20013;-67
2022/05/06 02:28:24;;;;;;;10.40;9.40;;;15.40;99.90;;;;;;1043452;28;20027;-66
2022/05/06 02:28:54;;;;;;;10.30;9.30;;;15.40;99.90;;;;;;1043899;28;20441;-66
2022/05/06 02:29:25;;;;;;;10.30;9.20;;;15.40;99.90;;;;;;1043424;28;20411;-66
2022/05/06 02:33:15;;;;;;;10.80;9.77;;;15.40;99.90;;;;;;1044145;28;20028;-67
2022/05/06 02:33:45;;;;;;;10.70;9.60;;;15.40;99.90;;;;;;1044010;28;20050;-67
2022/05/06 02:34:17;;;;;;;12.27;10.83;;;15.40;99.90;;;;;;1043578;28;20009;-66
2022/05/06 02:34:47;;;;;;;10.75;9.65;;;15.40;99.90;;;;;;1043271;28;20206;-65
2022/05/06 02:35:18;;;;;;;10.90;9.80;;;15.40;99.90;;;;;;1043873;28;20001;-65
2022/05/06 02:35:50;;;;;;;11.47;10.27;;;15.40;99.90;;;;;;1043296;28;20361;-65
2022/05/06 02:36:20;;;;;;;9.98;8.85;;;15.40;99.90;;;;;;1043819;28;20013;-68
2022/05/06 02:36:51;;;;;;;10.57;9.50;;;15.40;99.90;;;;;;1043541;28;20013;-67
2022/05/06 02:37:22;;;;;;;10.57;9.47;;;15.40;99.90;;;;;;1043669;28;20416;-67
2022/05/06 02:37:52;;;;;;;10.40;9.33;;;15.40;99.90;;;;;;1043865;28;20024;-67
2022/05/06 02:38:23;;;;;;;11.57;10.37;;;15.30;99.90;;;;;;1043488;28;20462;-66
2022/05/06 02:38:54;;;;;;;10.40;9.30;;;15.40;99.90;;;;;;1043579;28;20028;-68
2022/05/06 02:39:25;;;;;;;11.40;10.30;;;15.40;99.90;;;;;;1043705;28;20036;-66
2022/05/06 02:39:56;;;;;;;11.60;10.40;;;15.40;99.90;;;;;;1043430;28;20020;-66
2022/05/06 02:40:27;;;;;;;11.03;9.93;;;15.40;99.90;;;;;;1043585;28;20016;-67
2022/05/06 02:40:59;;;;;;;10.52;9.43;;;15.30;99.90;;;;;;1043494;28;20655;-67
2022/05/06 02:41:30;;;;;;;10.77;9.68;;;15.30;99.90;;;;;;1039610;28;20040;-65
2022/05/06 02:42:00;;;;;;;10.90;9.80;;;15.30;99.90;;;;;;1039741;28;20017;-65
2022/05/06 02:42:31;;;;;;;10.73;9.63;;;15.30;99.90;;;;;;1043757;28;20016;-66
2022/05/06 02:43:06;;;;;;;10.02;9.00;;;15.30;99.90;;;;;;1042989;28;20005;-66
2022/05/06 02:43:37;;;;;;;10.57;9.48;;;15.30;99.90;;;;;;1043848;28;20063;-65
2022/05/06 02:44:08;;;;;;;10.53;9.43;;;15.30;99.90;;;;;;1044062;28;20059;-66
2022/05/06 02:44:39;;;;;;;10.40;9.40;;;15.30;99.90;;;;;;1043688;28;20011;-67
2022/05/06 02:45:10;;;;;;;11.90;10.70;;;15.30;99.90;;;;;;1044050;28;20009;-67
2022/05/06 02:45:41;;;;;;;10.00;8.95;;;15.30;99.90;;;;;;1043854;28;20029;-65
2022/05/06 02:46:12;;;;;;;11.00;9.60;;;15.30;99.90;;;;;;1043878;28;20041;-69